createdAt,value
2022-10-13T00:00:26.431Z,98018.16
2022-10-13T00:02:52.980Z,98018.97
2022-10-13T00:05:19.505Z,98025.00
2022-10-13T00:07:46.009Z,98020.66
2022-10-13T00:10:12.522Z,98023.22
2022-10-13T00:12:39.157Z,98023.22
2022-10-13T00:15:06.804Z,98016.22
2022-10-13T00:17:33.401Z,98034.34
2022-10-13T00:19:59.916Z,98028.34
2022-10-13T00:22:27.664Z,98024.09
2022-10-13T00:24:54.344Z,98027.50
2022-10-13T00:27:20.932Z,98024.09
2022-10-13T00:29:47.412Z,98020.47
2022-10-13T00:32:13.902Z,98022.28
2022-10-13T00:34:40.507Z,98006.81
2022-10-13T00:37:07.036Z,98010.31
2022-10-13T00:39:33.528Z,98026.66
2022-10-13T00:42:00.372Z,98032.63
2022-10-13T00:45:00.662Z,98038.59
2022-10-13T00:47:28.960Z,98023.91
2022-10-13T00:49:55.496Z,98038.59
2022-10-13T00:52:22.264Z,98029.03
2022-10-13T00:54:48.829Z,98023.81
2022-10-13T00:57:15.304Z,98024.00
2022-10-13T00:59:42.021Z,98030.03
2022-10-13T01:02:08.487Z,98021.44
2022-10-13T01:04:38.049Z,98037.72
2022-10-13T01:07:04.658Z,98035.16
2022-10-13T01:09:37.389Z,98028.22
2022-10-13T01:12:22.382Z,98030.03
2022-10-13T01:15:20.773Z,98036.03
2022-10-13T01:18:12.224Z,98031.75
2022-10-13T01:21:06.679Z,98027.44
2022-10-13T01:23:54.525Z,98033.38
2022-10-13T01:26:44.992Z,98025.69
2022-10-13T01:29:47.875Z,98028.25
2022-10-13T01:32:14.264Z,98029.13
2022-10-13T01:34:46.736Z,98028.25
2022-10-13T01:37:20.929Z,98027.41
2022-10-13T01:39:53.489Z,98029.97
2022-10-13T01:42:23.082Z,98020.47
2022-10-13T01:44:54.932Z,98023.09
2022-10-13T01:47:21.412Z,98017.16
2022-10-13T01:49:47.915Z,98020.47
2022-10-13T01:52:16.867Z,98029.09
2022-10-13T01:54:47.352Z,98023.13
2022-10-13T01:57:33.025Z,98029.97
2022-10-13T02:00:12.687Z,98025.69
2022-10-13T02:03:06.095Z,98019.72
2022-10-13T02:05:49.165Z,98003.22
2022-10-13T02:08:36.870Z,98019.72
2022-10-13T02:11:19.747Z,97999.88
2022-10-13T02:14:15.937Z,98010.25
2022-10-13T02:16:43.496Z,98015.38
2022-10-13T02:19:11.765Z,98011.06
2022-10-13T02:21:38.284Z,98013.66
2022-10-13T02:24:05.152Z,98003.25
2022-10-13T02:26:32.512Z,98003.41
2022-10-13T02:28:59.159Z,98001.72
2022-10-13T02:31:25.679Z,98005.97
2022-10-13T02:33:52.192Z,98009.41
2022-10-13T02:36:18.655Z,98004.28
2022-10-13T02:38:45.139Z,98003.41
2022-10-13T02:41:11.995Z,97998.28
2022-10-13T02:43:38.761Z,98000.84
2022-10-13T02:46:05.390Z,97994.84
2022-10-13T02:48:32.106Z,97994.03
2022-10-13T02:50:58.587Z,97986.34
2022-10-13T02:53:25.116Z,97996.59
2022-10-13T02:55:51.611Z,97998.28
2022-10-13T02:58:18.098Z,97995.72
2022-10-13T03:00:44.649Z,97988.81
2022-10-13T03:03:11.347Z,97993.16
2022-10-13T03:05:37.860Z,97985.47
2022-10-13T03:08:04.414Z,97984.63
2022-10-13T03:10:31.983Z,97982.06
2022-10-13T03:12:58.661Z,97970.78
2022-10-13T03:15:25.342Z,97982.03
2022-10-13T03:17:51.811Z,97979.47
2022-10-13T03:20:18.310Z,97978.59
2022-10-13T03:22:48.821Z,97984.59
2022-10-13T03:25:16.411Z,97992.28
2022-10-13T03:27:42.898Z,97997.41
2022-10-13T03:30:10.239Z,97998.22
2022-10-13T03:32:36.734Z,97999.13
2022-10-13T03:35:03.351Z,98002.53
2022-10-13T03:37:30.682Z,98002.53
2022-10-13T03:39:57.154Z,98004.09
2022-10-13T03:42:23.913Z,98002.53
2022-10-13T03:44:53.759Z,97999.97
2022-10-13T03:47:22.727Z,98008.53
2022-10-13T03:49:49.219Z,98002.53
2022-10-13T03:52:15.732Z,98006.81
2022-10-13T03:54:42.224Z,97995.53
2022-10-13T03:57:08.719Z,97997.34
2022-10-13T03:59:36.913Z,98003.34
2022-10-13T04:02:03.794Z,98005.09
2022-10-13T04:04:30.364Z,97998.09
2022-10-13T04:06:56.873Z,97998.22
2022-10-13T04:09:23.416Z,98014.50
2022-10-13T04:11:51.436Z,98004.19
2022-10-13T04:14:18.413Z,98014.50
2022-10-13T04:16:44.895Z,98013.63
2022-10-13T04:19:12.696Z,98022.19
2022-10-13T04:21:39.237Z,98018.75
2022-10-13T04:24:06.024Z,98011.84
2022-10-13T04:26:34.280Z,98013.63
2022-10-13T04:29:02.406Z,98014.50
2022-10-13T04:31:29.225Z,97996.16
2022-10-13T04:33:55.757Z,98016.19
2022-10-13T04:36:22.263Z,98011.06
2022-10-13T04:38:48.823Z,98014.41
2022-10-13T04:41:16.454Z,98005.03
2022-10-13T04:43:42.942Z,98007.59
2022-10-13T04:46:12.626Z,98005.03
2022-10-13T04:48:39.181Z,97998.22
2022-10-13T04:51:13.752Z,98002.53
2022-10-13T04:53:40.391Z,98003.34
2022-10-13T04:56:09.740Z,97993.00
2022-10-13T04:58:36.903Z,97997.34
2022-10-13T05:01:04.760Z,97996.56
2022-10-13T05:03:31.438Z,97999.91
2022-10-13T05:05:57.917Z,97988.72
2022-10-13T05:08:24.558Z,97989.66
2022-10-13T05:11:01.261Z,97991.44
2022-10-13T05:13:28.374Z,97989.66
2022-10-13T05:15:54.904Z,97992.22
2022-10-13T05:18:21.387Z,97984.53
2022-10-13T05:20:47.887Z,97986.25
2022-10-13T05:23:14.796Z,97983.69
2022-10-13T05:25:41.328Z,97973.38
2022-10-13T05:28:08.131Z,97981.06
2022-10-13T05:30:34.895Z,97975.91
2022-10-13T05:33:01.382Z,97985.22
2022-10-13T05:35:27.928Z,97981.63
2022-10-13T05:37:54.441Z,97987.69
2022-10-13T05:40:23.708Z,97978.09
2022-10-13T05:42:50.540Z,97996.16
2022-10-13T05:45:17.056Z,97997.81
2022-10-13T05:47:43.566Z,97990.91
2022-10-13T05:50:10.189Z,97989.97
2022-10-13T05:52:37.841Z,97981.19
2022-10-13T05:55:04.800Z,97995.00
2022-10-13T05:57:33.056Z,97974.25
2022-10-13T06:00:05.815Z,97989.00
2022-10-13T06:02:38.600Z,97983.03
2022-10-13T06:05:05.740Z,97979.63
2022-10-13T06:07:32.244Z,97968.44
2022-10-13T06:09:58.918Z,97976.22
2022-10-13T06:12:25.411Z,97980.56
2022-10-13T06:14:51.920Z,97986.56
2022-10-13T06:17:18.387Z,97984.88
2022-10-13T06:19:45.399Z,97980.66
2022-10-13T06:22:11.929Z,97973.75
2022-10-13T06:24:38.439Z,97980.75
2022-10-13T06:27:04.916Z,97871.09
2022-10-13T06:29:33.408Z,97978.22
2022-10-13T06:31:59.884Z,97978.22
2022-10-13T06:34:26.343Z,97974.84
2022-10-13T06:36:52.903Z,97986.81
2022-10-13T06:39:19.400Z,97981.69
2022-10-13T06:41:45.905Z,97982.47
2022-10-13T06:44:12.520Z,97989.44
2022-10-13T06:46:39.007Z,97988.53
2022-10-13T06:49:05.507Z,97994.56
2022-10-13T06:51:32.292Z,97993.69
2022-10-13T06:53:58.872Z,97994.56
2022-10-13T06:56:25.392Z,97990.31
2022-10-13T06:58:51.939Z,97990.31
2022-10-13T07:01:18.493Z,97986.00
2022-10-13T07:03:44.982Z,97984.34
2022-10-13T07:06:11.524Z,97986.00
2022-10-13T07:08:38.010Z,97989.47
2022-10-13T07:11:15.960Z,97984.41
2022-10-13T07:13:46.251Z,97988.66
2022-10-13T07:16:13.731Z,97987.78
2022-10-13T07:18:40.215Z,97991.22
2022-10-13T07:21:06.996Z,97994.59
2022-10-13T07:23:33.502Z,97992.09
2022-10-13T07:26:01.092Z,97983.50
2022-10-13T07:28:27.680Z,97982.66
2022-10-13T07:30:54.226Z,97982.66
2022-10-13T07:33:20.736Z,97976.66
2022-10-13T07:35:47.246Z,97973.25
2022-10-13T07:38:13.729Z,97976.66
2022-10-13T07:40:40.227Z,97963.66
2022-10-13T07:43:06.706Z,97974.09
2022-10-13T07:45:33.170Z,97971.53
2022-10-13T07:47:59.692Z,97966.41
2022-10-13T07:50:26.183Z,97959.59
2022-10-13T07:52:52.741Z,97958.72
2022-10-13T07:55:19.303Z,97960.47
2022-10-13T07:57:45.783Z,97859.53
2022-10-13T08:00:12.673Z,97954.28
2022-10-13T08:02:39.251Z,97968.16
2022-10-13T08:05:05.871Z,97965.59
2022-10-13T08:07:32.366Z,97975.03
2022-10-13T08:09:58.904Z,97972.38
2022-10-13T08:12:25.538Z,97975.91
2022-10-13T08:14:52.050Z,97979.25
2022-10-13T08:17:27.195Z,97971.63
2022-10-13T08:19:53.751Z,97977.59
2022-10-13T08:22:22.713Z,97963.09
2022-10-13T08:24:52.510Z,97963.09
2022-10-13T08:27:20.926Z,97955.22
2022-10-13T08:29:47.704Z,97968.25
2022-10-13T08:32:14.221Z,97965.69
2022-10-13T08:34:40.743Z,97967.38
2022-10-13T08:37:15.409Z,97959.69
2022-10-13T08:39:42.015Z,97958.81
2022-10-13T08:42:18.225Z,97940.63
2022-10-13T08:47:54.261Z,97940.06
2022-10-13T08:50:25.536Z,97925.22
2022-10-13T08:52:54.940Z,97941.78
2022-10-13T08:55:45.350Z,97940.13
2022-10-13T08:58:19.778Z,97944.34
2022-10-13T09:00:46.274Z,97933.22
2022-10-13T09:03:30.739Z,97923.84
2022-10-13T09:05:59.930Z,97914.44
2022-10-13T09:08:26.943Z,97932.41
2022-10-13T09:10:53.843Z,97930.72
2022-10-13T09:13:20.483Z,97940.97
2022-10-13T09:15:50.226Z,97943.47
2022-10-13T09:18:16.906Z,97938.41
2022-10-13T09:20:43.370Z,97952.09
2022-10-13T09:23:20.758Z,97946.97
2022-10-13T09:25:51.268Z,97942.59
2022-10-13T09:28:29.540Z,97944.41
2022-10-13T09:31:11.599Z,97935.84
2022-10-13T09:33:40.851Z,97929.84
2022-10-13T09:36:15.221Z,97928.94
2022-10-13T09:38:45.515Z,97929.75
2022-10-13T09:41:17.516Z,97910.72
2022-10-13T09:43:59.332Z,97927.09
2022-10-13T09:46:34.570Z,97924.59
2022-10-13T09:49:09.087Z,97919.41
2022-10-13T09:51:41.046Z,97904.72
2022-10-13T09:54:26.691Z,97916.91
2022-10-13T09:56:59.338Z,97909.22
2022-10-13T09:59:33.422Z,97909.22
2022-10-13T10:02:02.209Z,97910.66
2022-10-13T10:04:37.924Z,97924.59
2022-10-13T10:07:16.045Z,97905.63
2022-10-13T10:09:47.375Z,97901.34
2022-10-13T10:12:20.263Z,97909.41
2022-10-13T10:14:50.128Z,97912.00
2022-10-13T10:17:28.712Z,97906.00
2022-10-13T10:20:07.953Z,97899.94
2022-10-13T10:22:44.406Z,97894.91
2022-10-13T10:25:23.092Z,97898.34
2022-10-13T10:27:56.415Z,97900.91
2022-10-13T10:30:22.939Z,97894.06
2022-10-13T10:32:55.084Z,97894.88
2022-10-13T10:35:42.495Z,97897.47
2022-10-13T10:38:24.431Z,97888.06
2022-10-13T10:41:07.599Z,97896.63
2022-10-13T10:43:44.269Z,97889.78
2022-10-13T10:46:32.302Z,97887.22
2022-10-13T10:49:04.085Z,97888.06
2022-10-13T10:51:32.613Z,97872.41
2022-10-13T10:54:17.104Z,97879.22
2022-10-13T10:57:03.036Z,97888.09
2022-10-13T10:59:51.647Z,97888.84
2022-10-13T11:02:38.484Z,97880.41
2022-10-13T11:05:06.426Z,97890.66
2022-10-13T11:07:33.286Z,97874.41
2022-10-13T11:09:59.688Z,97871.03
2022-10-13T11:12:28.856Z,97872.72
2022-10-13T11:14:55.242Z,97861.63
2022-10-13T11:17:29.507Z,97743.44
2022-10-13T11:19:56.315Z,97845.41
2022-10-13T11:22:29.969Z,97776.03
2022-10-13T11:25:00.859Z,97835.16
2022-10-13T11:27:30.620Z,97832.59
2022-10-13T11:29:58.313Z,97823.19
2022-10-13T11:32:41.255Z,97832.63
2022-10-13T11:35:10.389Z,97834.28
2022-10-13T11:38:15.312Z,97831.69
2022-10-13T11:41:03.024Z,97830.03
2022-10-13T11:43:48.336Z,97835.16
2022-10-13T11:46:14.732Z,97831.75
2022-10-13T11:49:00.519Z,97828.31
2022-10-13T11:51:36.796Z,97824.91
2022-10-13T11:54:19.404Z,97818.84
2022-10-13T11:56:51.440Z,97812.13
2022-10-13T11:59:29.180Z,97801.00
2022-10-13T12:01:59.792Z,97796.66
2022-10-13T12:04:28.376Z,97803.56
2022-10-13T12:07:00.451Z,97792.38
2022-10-13T12:09:29.134Z,97788.16
2022-10-13T12:11:57.612Z,97792.47
2022-10-13T12:14:40.273Z,97784.69
2022-10-13T12:17:23.331Z,97778.66
2022-10-13T12:19:50.506Z,97779.59
2022-10-13T12:22:17.003Z,97778.78
2022-10-13T12:24:43.497Z,97775.28
2022-10-13T12:27:20.519Z,97770.91
2022-10-13T12:29:47.230Z,97772.75
2022-10-13T12:32:24.682Z,97776.22
2022-10-13T12:34:51.184Z,97778.78
2022-10-13T12:37:29.460Z,97771.91
2022-10-13T12:39:56.464Z,97771.91
2022-10-13T12:42:26.720Z,97777.91
2022-10-13T12:44:53.273Z,97767.66
2022-10-13T12:47:39.789Z,97766.78
2022-10-13T12:50:30.805Z,97766.78
2022-10-13T12:53:20.003Z,97759.94
2022-10-13T12:55:50.388Z,97741.78
2022-10-13T12:58:33.592Z,97758.25
2022-10-13T13:01:07.628Z,97759.94
2022-10-13T13:03:36.128Z,97755.59
2022-10-13T13:06:14.928Z,97760.81
2022-10-13T13:08:42.178Z,97751.41
2022-10-13T13:11:35.596Z,97748.84
2022-10-13T13:14:24.451Z,97742.88
2022-10-13T13:17:02.812Z,97749.72
2022-10-13T13:19:32.452Z,97741.94
2022-10-13T13:21:59.069Z,97742.00
2022-10-13T13:24:36.037Z,97744.56
2022-10-13T13:27:19.588Z,97746.28
2022-10-13T13:29:46.411Z,97749.72
2022-10-13T13:32:14.093Z,97737.66
2022-10-13T13:34:40.692Z,97729.16
2022-10-13T13:37:22.998Z,97731.72
2022-10-13T13:39:50.432Z,97736.88
2022-10-13T13:42:16.958Z,97740.25
2022-10-13T13:44:43.534Z,97735.19
2022-10-13T13:47:23.961Z,97729.09
2022-10-13T13:49:51.118Z,97725.72
2022-10-13T13:52:18.058Z,97731.72
2022-10-13T13:54:44.878Z,97732.63
2022-10-13T13:57:12.015Z,97724.94
2022-10-13T13:59:39.234Z,97717.22
2022-10-13T14:02:06.401Z,97718.84
2022-10-13T14:04:33.614Z,97717.19
2022-10-13T14:07:00.155Z,97724.03
2022-10-13T14:09:26.649Z,97717.28
2022-10-13T14:11:53.162Z,97725.78
2022-10-13T14:14:19.723Z,97719.78
2022-10-13T14:16:46.264Z,97712.09
2022-10-13T14:19:12.911Z,97714.66
2022-10-13T14:21:39.456Z,97706.97
2022-10-13T14:24:06.243Z,97714.66
2022-10-13T14:26:32.747Z,97705.25
2022-10-13T14:28:59.349Z,97710.38
2022-10-13T14:31:25.947Z,97706.97
2022-10-13T14:33:54.414Z,97708.66
2022-10-13T14:36:21.148Z,97712.94
2022-10-13T14:38:47.669Z,97700.97
2022-10-13T14:41:16.978Z,97709.53
2022-10-13T14:43:43.732Z,97700.97
2022-10-13T14:46:10.200Z,97685.41
2022-10-13T14:48:37.109Z,97700.09
2022-10-13T14:51:07.359Z,97694.16
2022-10-13T14:53:38.359Z,97694.16
2022-10-13T14:56:22.098Z,97696.72
2022-10-13T14:58:48.952Z,97693.31
2022-10-13T15:01:15.739Z,97691.59
2022-10-13T15:03:42.344Z,97682.91
2022-10-13T15:06:19.545Z,97702.69
2022-10-13T15:08:46.228Z,97689.88
2022-10-13T15:11:13.108Z,97683.06
2022-10-13T15:13:39.752Z,97676.25
2022-10-13T15:16:06.792Z,97685.63
2022-10-13T15:18:34.759Z,97685.69
2022-10-13T15:21:01.279Z,97685.69
2022-10-13T15:23:27.926Z,97690.75
2022-10-13T15:25:58.753Z,97684.78
2022-10-13T15:28:29.689Z,97691.63
2022-10-13T15:30:56.227Z,97688.19
2022-10-13T15:33:22.896Z,97691.69
2022-10-13T15:35:50.187Z,97696.78
2022-10-13T15:38:17.250Z,97697.66
2022-10-13T15:40:43.802Z,97692.41
2022-10-13T15:43:10.341Z,97694.25
2022-10-13T15:45:36.823Z,97689.84
2022-10-13T15:48:03.655Z,97689.13
2022-10-13T15:50:30.212Z,97699.38
2022-10-13T15:52:56.983Z,97678.81
2022-10-13T15:55:23.531Z,97678.81
2022-10-13T15:57:50.038Z,97683.94
2022-10-13T16:00:16.843Z,97685.69
2022-10-13T16:02:43.687Z,97690.81
2022-10-13T16:05:11.780Z,97677.09
2022-10-13T16:07:41.491Z,97680.56
2022-10-13T16:10:09.102Z,97684.84
2022-10-13T16:12:35.592Z,97684.84
2022-10-13T16:15:02.204Z,97686.59
2022-10-13T16:17:28.672Z,97683.16
2022-10-13T16:19:55.263Z,97682.28
2022-10-13T16:22:22.190Z,97680.50
2022-10-13T16:24:49.015Z,97691.72
2022-10-13T16:27:15.520Z,97693.41
2022-10-13T16:29:42.000Z,97697.66
2022-10-13T16:32:08.509Z,97695.09
2022-10-13T16:34:35.019Z,97693.38
2022-10-13T16:37:01.524Z,97687.25
2022-10-13T16:39:28.494Z,97693.38
2022-10-13T16:41:55.087Z,97687.41
2022-10-13T16:44:21.600Z,97697.63
2022-10-13T16:46:49.697Z,97677.09
2022-10-13T16:49:16.208Z,97679.66
2022-10-13T16:51:42.709Z,97671.88
2022-10-13T16:54:09.476Z,97675.25
2022-10-13T16:56:36.026Z,97674.34
2022-10-13T16:59:04.540Z,97684.72
2022-10-13T17:01:31.392Z,97686.44
2022-10-13T17:03:57.929Z,97689.03
2022-10-13T17:06:25.618Z,97689.88
2022-10-13T17:08:52.147Z,97684.75
2022-10-13T17:11:20.270Z,97681.38
2022-10-13T17:13:46.945Z,97675.34
2022-10-13T17:16:13.452Z,97677.97
2022-10-13T17:18:40.044Z,97673.72
2022-10-13T17:21:09.073Z,97683.16
2022-10-13T17:23:35.728Z,97686.59
2022-10-13T17:26:09.540Z,97685.72
2022-10-13T17:28:36.252Z,97684.03
2022-10-13T17:31:09.456Z,97684.88
2022-10-13T17:33:36.651Z,97680.63
2022-10-13T17:36:12.200Z,97682.31
2022-10-13T17:38:38.677Z,97685.75
2022-10-13T17:41:06.178Z,97690.00
2022-10-13T17:43:34.486Z,97696.00
2022-10-13T17:46:38.370Z,97674.31
2022-10-13T17:49:09.783Z,97689.06
2022-10-13T17:51:36.345Z,97693.44
2022-10-13T17:54:02.860Z,97693.44
2022-10-13T17:56:29.760Z,97687.44
2022-10-13T17:58:56.679Z,97685.75
2022-10-13T18:01:30.438Z,97684.00
2022-10-13T18:03:58.375Z,97687.44
2022-10-13T18:06:25.110Z,97687.41
2022-10-13T18:08:52.151Z,97686.63
2022-10-13T18:11:19.795Z,97677.06
2022-10-13T18:13:46.287Z,97686.63
2022-10-13T18:16:17.557Z,97682.34
2022-10-13T18:18:44.960Z,97680.66
2022-10-13T18:21:13.264Z,97675.53
2022-10-13T18:23:39.791Z,97672.13
2022-10-13T18:26:07.948Z,97657.44
2022-10-13T18:28:35.924Z,97672.13
2022-10-13T18:31:08.919Z,97666.16
2022-10-13T18:33:35.421Z,97661.03
2022-10-13T18:36:02.122Z,97671.28
2022-10-13T18:38:28.585Z,97666.97
2022-10-13T18:40:59.221Z,97648.06
2022-10-13T18:43:25.682Z,97656.56
2022-10-13T18:45:52.175Z,97668.69
2022-10-13T18:48:19.829Z,97668.69
2022-10-13T18:50:46.343Z,97666.97
2022-10-13T18:53:12.800Z,97660.13
2022-10-13T18:55:42.745Z,97666.13
2022-10-13T18:58:09.445Z,97652.38
2022-10-13T19:00:36.254Z,97656.72
2022-10-13T19:03:02.911Z,97666.97
2022-10-13T19:05:29.606Z,97651.47
2022-10-13T19:07:56.091Z,97658.44
2022-10-13T19:10:22.590Z,97661.84
2022-10-13T19:12:49.042Z,97656.72
2022-10-13T19:15:15.548Z,97654.16
2022-10-13T19:17:42.035Z,97647.34
2022-10-13T19:20:08.886Z,97649.06
2022-10-13T19:22:35.372Z,97644.81
2022-10-13T19:25:01.851Z,97632.81
2022-10-13T19:27:28.344Z,97643.09
2022-10-13T19:29:54.847Z,97648.25
2022-10-13T19:32:21.351Z,97645.63
2022-10-13T19:34:47.864Z,97640.53
2022-10-13T19:37:16.334Z,97638.72
2022-10-13T19:39:42.862Z,97647.34
2022-10-13T19:42:09.354Z,97644.78
2022-10-13T19:44:35.835Z,97644.78
2022-10-13T19:47:02.290Z,97640.50
2022-10-13T19:49:28.806Z,97638.69
2022-10-13T19:51:55.899Z,97638.72
2022-10-13T19:54:22.596Z,97622.47
2022-10-13T19:56:49.322Z,97631.88
2022-10-13T19:59:16.256Z,97642.22
2022-10-13T20:01:42.774Z,97643.06
2022-10-13T20:04:09.303Z,97634.44
2022-10-13T20:06:36.038Z,97632.81
2022-10-13T20:09:02.506Z,97634.44
2022-10-13T20:11:28.979Z,97635.38
2022-10-13T20:13:55.481Z,97626.84
2022-10-13T20:16:23.314Z,97626.78
2022-10-13T20:18:54.000Z,97629.41
2022-10-13T20:21:20.716Z,97633.66
2022-10-13T20:23:47.276Z,97640.53
2022-10-13T20:26:13.944Z,97637.13
2022-10-13T20:28:43.113Z,97643.94
2022-10-13T20:31:10.615Z,97630.13
2022-10-13T20:33:37.167Z,97641.38
2022-10-13T20:36:05.528Z,97639.69
2022-10-13T20:38:32.705Z,97637.13
2022-10-13T20:41:08.628Z,97624.22
2022-10-13T20:43:35.232Z,97628.53
2022-10-13T20:46:04.779Z,97628.53
2022-10-13T20:48:45.569Z,97635.41
2022-10-13T20:51:21.563Z,97636.22
2022-10-13T20:53:48.567Z,97639.66
2022-10-13T20:56:22.888Z,97640.50
2022-10-13T20:58:49.551Z,97640.50
2022-10-13T21:01:16.551Z,97636.16
2022-10-13T21:03:43.115Z,97633.59
2022-10-13T21:06:11.169Z,97638.72
2022-10-13T21:08:37.716Z,97637.88
2022-10-13T21:11:11.451Z,97637.88
2022-10-13T21:13:38.847Z,97625.72
2022-10-13T21:16:09.352Z,97641.28
2022-10-13T21:18:35.879Z,97644.75
2022-10-13T21:21:06.096Z,97641.28
2022-10-13T21:23:32.654Z,97639.63
2022-10-13T21:26:05.655Z,97643.91
2022-10-13T21:28:32.272Z,97654.16
2022-10-13T21:31:02.824Z,97667.81
2022-10-13T21:33:29.435Z,97665.25
2022-10-13T21:35:55.915Z,97666.94
2022-10-13T21:38:22.660Z,97666.94
2022-10-13T21:40:53.673Z,97666.13
2022-10-13T21:43:20.511Z,97667.81
2022-10-13T21:45:46.985Z,97668.66
2022-10-13T21:48:13.516Z,97637.34
2022-10-13T21:50:40.000Z,97675.47
2022-10-13T21:53:06.549Z,97655.59
2022-10-13T21:55:33.109Z,97666.91
2022-10-13T21:58:05.239Z,97667.69
2022-10-13T22:00:32.153Z,97666.81
2022-10-13T22:02:58.731Z,97653.16
2022-10-13T22:05:25.206Z,97648.09
2022-10-13T22:07:51.727Z,97646.38
2022-10-13T22:10:18.319Z,97648.94
2022-10-13T22:12:44.803Z,97655.78
2022-10-13T22:15:11.690Z,97652.34
2022-10-13T22:17:38.202Z,97651.50
2022-10-13T22:20:04.989Z,97667.78
2022-10-13T22:22:31.501Z,97650.66
2022-10-13T22:24:58.033Z,97646.38
2022-10-13T22:27:24.500Z,97649.81
2022-10-13T22:29:51.179Z,97651.50
2022-10-13T22:32:17.674Z,97665.22
2022-10-13T22:34:44.169Z,97669.44
2022-10-13T22:37:10.672Z,97658.34
2022-10-13T22:39:37.168Z,97651.50
2022-10-13T22:42:03.829Z,97648.94
2022-10-13T22:44:30.308Z,97648.88
2022-10-13T22:46:56.799Z,97659.19
2022-10-13T22:49:23.295Z,97664.34
2022-10-13T22:51:49.762Z,97663.47
2022-10-13T22:54:16.295Z,97652.34
2022-10-13T22:56:43.119Z,97651.50
2022-10-13T22:59:09.791Z,97549.13
2022-10-13T23:01:36.267Z,97660.03
2022-10-13T23:04:02.798Z,97662.59
2022-10-13T23:06:30.815Z,97657.44
2022-10-13T23:08:59.999Z,97659.09
2022-10-13T23:11:26.474Z,97666.03
2022-10-13T23:13:53.015Z,97658.31
2022-10-13T23:16:21.735Z,97650.63
2022-10-13T23:18:48.287Z,97655.72
2022-10-13T23:21:16.725Z,97644.53
2022-10-13T23:23:43.235Z,97657.47
2022-10-13T23:26:16.841Z,97642.06
2022-10-13T23:28:43.788Z,97645.53
2022-10-13T23:31:14.769Z,97653.22
2022-10-13T23:33:41.341Z,97648.94
2022-10-13T23:36:08.886Z,97650.66
2022-10-13T23:38:35.439Z,97646.38
2022-10-13T23:41:06.052Z,97648.94
2022-10-13T23:43:32.643Z,97638.66
2022-10-13T23:45:59.181Z,97648.06
2022-10-13T23:48:25.687Z,97644.66
2022-10-13T23:50:52.172Z,97654.03
2022-10-13T23:53:18.649Z,97647.22
2022-10-13T23:55:45.146Z,97632.53
2022-10-13T23:58:11.620Z,97642.94
